Time;durP1;ratioP1;P1;durP2;ratioP2;P2;SDS_P1;SDS_P2;PMS_P1;PMS_P2;Temp;Humidity;BMP_temperature;BMP_pressure;BME280_temperature;BME280_humidity;BME280_pressure;Samples;Min_cycle;Max_cycle;Signal;HPM_P1;HPM_P2
2021/12/17 00:00:33;;;;;;;59.13;23.70;;;8.70;99.90;;;;;;5114080;28;20036;-79
2021/12/17 01:56:53;;;;;;;49.23;18.73;;;8.60;99.90;;;;;;5220287;23;20066;-79
2021/12/17 01:59:37;;;;;;;44.77;17.10;;;8.60;99.90;;;;;;5211735;23;20067;-82
2021/12/17 02:04:50;;;;;;;54.93;19.67;;;8.60;99.90;;;;;;4960378;23;20047;-82
2021/12/17 02:07:16;;;;;;;57.83;19.50;;;8.60;99.90;;;;;;4946421;29;20300;-82
2021/12/17 02:31:54;;;;;;;53.50;19.10;;;8.60;99.90;;;;;;4965996;23;20114;-82
2021/12/17 02:37:11;;;;;;;36.27;15.00;;;8.50;99.90;;;;;;4958169;28;20106;-82
2021/12/17 02:47:41;;;;;;;31.20;13.93;;;8.60;99.90;;;;;;4945142;28;20378;-82
2021/12/17 02:50:09;;;;;;;39.37;15.03;;;8.60;99.90;;;;;;4942553;28;20066;-82
2021/12/17 02:52:37;;;;;;;36.10;14.97;;;8.60;99.90;;;;;;4958111;28;20110;-82
2021/12/17 02:55:07;;;;;;;43.53;15.50;;;8.50;99.90;;;;;;4947746;28;20050;-82
2021/12/17 02:57:35;;;;;;;34.93;15.40;;;8.50;99.90;;;;;;4946054;28;20050;-82
2021/12/17 03:00:07;;;;;;;36.07;16.33;;;8.60;99.90;;;;;;4942233;28;20125;-82
2021/12/17 03:02:37;;;;;;;42.07;16.93;;;8.60;99.90;;;;;;4957885;28;20078;-82
2021/12/17 03:05:04;;;;;;;36.90;15.00;;;8.50;99.90;;;;;;4935989;29;20047;-83
2021/12/17 03:07:29;;;;;;;38.10;15.70;;;8.60;99.90;;;;;;4939199;29;20452;-83
2021/12/17 03:12:29;;;;;;;34.13;14.53;;;8.60;99.90;;;;;;4923491;29;20134;-83
2021/12/17 03:15:08;;;;;;;33.03;15.97;;;8.60;99.90;;;;;;4938715;29;20049;-83
2021/12/17 03:25:28;;;;;;;33.77;15.00;;;8.60;99.90;;;;;;4925730;29;20185;-83
2021/12/17 03:27:54;;;;;;;36.53;14.80;;;8.60;99.90;;;;;;4938827;29;20031;-83
2021/12/17 03:30:20;;;;;;;37.83;15.40;;;8.50;99.90;;;;;;4907000;29;20497;-83
2021/12/17 03:32:45;;;;;;;37.80;16.23;;;8.50;99.90;;;;;;4922641;29;20059;-83
2021/12/17 03:35:11;;;;;;;38.00;16.43;;;8.50;99.90;;;;;;4924882;29;20046;-83
2021/12/17 03:37:37;;;;;;;34.10;13.43;;;8.50;99.90;;;;;;4916361;29;20084;-83
2021/12/17 03:40:03;;;;;;;34.30;14.50;;;8.50;99.90;;;;;;4934522;29;20046;-83
2021/12/17 03:42:29;;;;;;;29.63;13.40;;;8.50;99.90;;;;;;4891636;29;20133;-83
2021/12/17 03:44:55;;;;;;;34.80;15.20;;;8.60;99.90;;;;;;4907658;28;20063;-83
2021/12/17 03:47:21;;;;;;;39.30;15.50;;;8.60;99.90;;;;;;4939651;29;20054;-82
2021/12/17 03:49:48;;;;;;;36.17;15.37;;;8.50;99.90;;;;;;4906949;29;20098;-82
2021/12/17 03:52:16;;;;;;;44.60;14.70;;;8.60;99.90;;;;;;4947655;28;20085;-83
2021/12/17 03:54:42;;;;;;;30.10;13.40;;;8.50;99.90;;;;;;4899192;29;20074;-83
2021/12/17 03:57:11;;;;;;;41.13;14.43;;;8.60;99.90;;;;;;4940882;28;20440;-83
2021/12/17 03:59:37;;;;;;;31.63;13.23;;;8.50;99.90;;;;;;4938194;29;20047;-83
2021/12/17 04:02:04;;;;;;;38.73;14.57;;;8.60;99.90;;;;;;4919724;29;20047;-83
2021/12/17 04:04:29;;;;;;;37.27;14.37;;;8.60;99.90;;;;;;4917150;29;20520;-83
2021/12/17 04:06:55;;;;;;;36.20;13.70;;;8.60;99.90;;;;;;4937825;29;20051;-83
2021/12/17 04:09:22;;;;;;;33.27;14.07;;;8.60;99.90;;;;;;4938047;29;20043;-83
2021/12/17 04:11:48;;;;;;;33.23;12.40;;;8.50;99.90;;;;;;4923064;29;20065;-83
2021/12/17 04:14:14;;;;;;;32.80;12.97;;;8.60;99.90;;;;;;4938362;29;20039;-83
2021/12/17 04:16:40;;;;;;;25.80;11.70;;;8.50;99.90;;;;;;4943228;28;20049;-83
2021/12/17 04:19:06;;;;;;;28.77;11.47;;;8.50;99.90;;;;;;4941087;28;20047;-83
2021/12/17 04:21:32;;;;;;;26.30;10.80;;;8.50;99.90;;;;;;4926620;29;20040;-83
2021/12/17 04:23:58;;;;;;;24.47;9.90;;;8.50;99.90;;;;;;4925705;29;20035;-83
2021/12/17 04:26:25;;;;;;;19.57;8.37;;;8.50;99.90;;;;;;4941933;29;20050;-83
2021/12/17 04:28:53;;;;;;;20.87;9.07;;;8.50;99.90;;;;;;4926324;29;20046;-83
2021/12/17 04:31:23;;;;;;;20.87;8.93;;;8.50;99.90;;;;;;4941681;29;20051;-83
2021/12/17 04:33:49;;;;;;;20.67;8.10;;;8.50;99.90;;;;;;4942109;29;20454;-83
2021/12/17 04:36:21;;;;;;;18.07;7.73;;;8.40;99.90;;;;;;4940331;28;20075;-83
2021/12/17 04:38:47;;;;;;;;;;;8.40;99.90;;;;;;4953039;29;20046;-83
2021/12/17 04:46:32;;;;;;;17.30;7.27;;;8.40;99.90;;;;;;4945073;28;20051;-83
2021/12/17 04:57:32;;;;;;;16.03;7.10;;;8.30;99.90;;;;;;4922286;29;20050;-83
2021/12/17 05:00:04;;;;;;;18.30;7.40;;;8.30;99.90;;;;;;4940235;28;20078;-83
2021/12/17 05:02:32;;;;;;;17.35;7.65;;;8.30;99.90;;;;;;4925488;28;20047;-83
2021/12/17 05:05:04;;;;;;;19.10;7.70;;;8.40;99.90;;;;;;4925824;29;20097;-83
2021/12/17 05:07:30;;;;;;;17.03;7.87;;;8.40;99.90;;;;;;4925779;29;20047;-83
2021/12/17 05:18:28;;;;;;;15.03;6.87;;;8.30;99.90;;;;;;4940957;29;20069;-83
2021/12/17 05:20:59;;;;;;;15.10;6.60;;;8.30;99.90;;;;;;4927390;28;20387;-83
2021/12/17 05:23:32;;;;;;;17.25;6.93;;;8.30;99.90;;;;;;4941163;29;20102;-83
2021/12/17 05:26:00;;;;;;;17.00;7.17;;;8.30;99.90;;;;;;4925102;29;20491;-83
2021/12/17 05:28:26;;;;;;;16.70;7.23;;;8.30;99.90;;;;;;4924959;29;20709;-83
2021/12/17 05:30:54;;;;;;;16.77;7.57;;;8.30;99.90;;;;;;4925105;29;20031;-83
2021/12/17 05:33:21;;;;;;;15.27;6.83;;;8.30;99.90;;;;;;4940739;28;20133;-83
2021/12/17 05:35:48;;;;;;;14.60;6.77;;;8.30;99.90;;;;;;4922128;29;20043;-83
2021/12/17 05:38:15;;;;;;;18.10;7.40;;;8.30;99.90;;;;;;4940982;29;20043;-83
2021/12/17 05:40:43;;;;;;;18.60;7.57;;;8.30;99.90;;;;;;4932436;28;20398;-83
2021/12/17 05:43:10;;;;;;;19.80;7.87;;;8.30;99.90;;;;;;4959076;28;20050;-83
2021/12/17 05:45:48;;;;;;;17.40;8.03;;;8.40;99.90;;;;;;4940525;29;20047;-83
2021/12/17 05:48:17;;;;;;;17.67;7.27;;;8.30;99.90;;;;;;4940843;29;20048;-83
2021/12/17 05:50:45;;;;;;;17.53;8.00;;;8.30;99.90;;;;;;4940718;29;20047;-83
2021/12/17 05:53:11;;;;;;;15.50;7.03;;;8.30;99.90;;;;;;4925445;28;20051;-83
2021/12/17 05:55:37;;;;;;;18.50;8.17;;;8.30;99.90;;;;;;4925790;29;20043;-83
2021/12/17 05:58:04;;;;;;;19.13;7.37;;;8.30;99.90;;;;;;4924434;29;20043;-83
2021/12/17 06:00:31;;;;;;;16.83;7.23;;;8.30;99.90;;;;;;4931852;28;20044;-83
2021/12/17 06:02:58;;;;;;;17.10;7.90;;;8.30;99.90;;;;;;4959175;28;20049;-83
2021/12/17 06:05:25;;;;;;;12.77;7.00;;;8.30;99.90;;;;;;4943664;28;20039;-84
2021/12/17 06:07:51;;;;;;;15.23;7.93;;;8.30;99.90;;;;;;4921315;29;20044;-83
2021/12/17 06:10:17;;;;;;;13.73;7.50;;;8.30;99.90;;;;;;4921149;29;20067;-83
2021/12/17 06:12:43;;;;;;;17.87;7.40;;;8.30;99.90;;;;;;4920869;29;20074;-83
2021/12/17 06:15:11;;;;;;;16.60;7.17;;;8.30;99.90;;;;;;4918079;29;20051;-83
2021/12/17 06:17:37;;;;;;;13.80;6.87;;;8.30;99.90;;;;;;4923864;29;20046;-83
2021/12/17 06:20:06;;;;;;;11.37;6.50;;;8.40;99.90;;;;;;4938115;28;20046;-83
2021/12/17 06:22:31;;;;;;;13.93;7.03;;;8.30;99.90;;;;;;4931182;29;20043;-84
2021/12/17 06:24:57;;;;;;;14.07;7.07;;;8.30;99.90;;;;;;4923711;29;20106;-83
2021/12/17 06:27:23;;;;;;;15.57;6.83;;;8.30;99.90;;;;;;4889388;29;20082;-84
2021/12/17 06:29:49;;;;;;;11.57;6.93;;;8.30;99.90;;;;;;4889595;29;20047;-83
2021/12/17 06:32:16;;;;;;;13.37;6.87;;;8.30;99.90;;;;;;4920125;29;20056;-82
2021/12/17 06:34:42;;;;;;;15.23;7.37;;;8.30;99.90;;;;;;4920529;29;20521;-84
2021/12/17 06:37:08;;;;;;;16.50;7.07;;;8.30;99.90;;;;;;4910952;28;20051;-84
2021/12/17 06:39:34;;;;;;;15.30;7.47;;;8.30;99.90;;;;;;4951608;28;20048;-83
2021/12/17 06:42:00;;;;;;;13.27;6.60;;;8.30;99.90;;;;;;4947170;28;20062;-84
2021/12/17 06:44:26;;;;;;;13.37;7.07;;;8.30;99.90;;;;;;4931046;28;20385;-84
2021/12/17 06:46:59;;;;;;;17.53;7.80;;;8.30;99.90;;;;;;4915393;29;20047;-84
2021/12/17 06:55:01;;;;;;;19.07;8.60;;;8.20;99.90;;;;;;4943733;28;20053;-83
2021/12/17 07:10:49;;;;;;;18.20;8.73;;;8.20;99.90;;;;;;4937736;28;20125;-83
2021/12/17 07:31:24;;;;;;;18.50;10.00;;;8.20;99.90;;;;;;4904657;29;20043;-82
2021/12/17 07:40:08;;;;;;;23.47;10.60;;;8.20;99.90;;;;;;4919899;29;20052;-83
2021/12/17 07:42:35;;;;;;;23.10;10.17;;;8.20;99.90;;;;;;4921100;29;20043;-82
2021/12/17 07:45:01;;;;;;;18.83;9.37;;;8.20;99.90;;;;;;4903501;29;20482;-81
2021/12/17 07:47:27;;;;;;;19.77;9.43;;;8.20;99.90;;;;;;4903090;29;20502;-81
2021/12/17 07:49:53;;;;;;;22.33;9.77;;;8.30;99.90;;;;;;4920499;29;20035;-81
2021/12/17 07:52:20;;;;;;;17.03;8.83;;;8.30;99.90;;;;;;4912497;29;20039;-80
2021/12/17 07:54:46;;;;;;;17.73;8.97;;;8.20;99.90;;;;;;4898492;29;20047;-80
2021/12/17 07:57:11;;;;;;;21.70;9.73;;;8.30;99.90;;;;;;4929513;29;20039;-81
2021/12/17 07:59:37;;;;;;;19.83;9.60;;;8.30;99.90;;;;;;4921949;29;20079;-81
2021/12/17 08:02:03;;;;;;;20.97;10.57;;;8.40;99.90;;;;;;4907595;29;20095;-81
2021/12/17 08:04:29;;;;;;;22.87;9.43;;;8.40;99.90;;;;;;4903935;29;20082;-84
2021/12/17 08:06:55;;;;;;;23.07;10.33;;;8.50;99.90;;;;;;4928057;29;20043;-82
2021/12/17 08:09:21;;;;;;;16.33;9.00;;;8.50;99.90;;;;;;4919383;29;20071;-82
2021/12/17 08:11:54;;;;;;;18.00;9.30;;;8.50;99.90;;;;;;4919104;29;20040;-82
2021/12/17 08:14:20;;;;;;;20.50;9.57;;;8.50;99.90;;;;;;4918977;29;20039;-82
2021/12/17 08:17:26;;;;;;;20.43;9.63;;;8.50;99.90;;;;;;4936440;29;20379;-82
2021/12/17 08:27:44;;;;;;;22.03;10.33;;;8.50;99.90;;;;;;4920429;29;20048;-82
2021/12/17 08:32:41;;;;;;;19.03;9.70;;;8.40;99.90;;;;;;4917122;29;20051;-82
2021/12/17 08:35:08;;;;;;;20.97;11.00;;;8.50;99.90;;;;;;4915903;29;20463;-82
2021/12/17 08:37:34;;;;;;;20.37;10.77;;;8.50;99.90;;;;;;4902977;29;20130;-82
2021/12/17 08:40:00;;;;;;;18.50;10.90;;;8.50;99.90;;;;;;4903162;29;20870;-82
2021/12/17 08:42:27;;;;;;;19.83;10.73;;;8.50;99.90;;;;;;4902899;29;20095;-82
2021/12/17 08:44:53;;;;;;;24.50;11.00;;;8.50;99.90;;;;;;4918944;29;20134;-82
2021/12/17 08:47:19;;;;;;;23.27;10.73;;;8.50;99.90;;;;;;4919400;29;20040;-82
2021/12/17 08:49:45;;;;;;;25.23;11.90;;;8.50;99.90;;;;;;4911164;29;20035;-82
2021/12/17 08:52:13;;;;;;;23.17;11.07;;;8.60;99.90;;;;;;4902965;29;20154;-82
2021/12/17 08:54:39;;;;;;;24.30;12.50;;;8.60;99.90;;;;;;4906202;29;20687;-82
2021/12/17 08:57:05;;;;;;;21.93;11.27;;;8.60;99.90;;;;;;4917672;29;20495;-82
2021/12/17 08:59:31;;;;;;;20.23;11.17;;;8.60;99.90;;;;;;4918134;29;20059;-82
2021/12/17 09:01:57;;;;;;;20.90;10.77;;;8.60;99.90;;;;;;4937519;29;20043;-82
2021/12/17 09:04:27;;;;;;;21.13;10.77;;;8.60;99.90;;;;;;4927695;29;20126;-82
2021/12/17 09:06:53;;;;;;;22.30;11.20;;;8.70;99.90;;;;;;4920002;29;20047;-82
2021/12/17 09:09:21;;;;;;;20.67;11.13;;;8.70;99.90;;;;;;4937392;29;20414;-82
2021/12/17 09:11:46;;;;;;;21.20;10.73;;;8.80;99.90;;;;;;4938124;29;20524;-80
2021/12/17 09:14:12;;;;;;;23.13;11.83;;;8.80;99.90;;;;;;4897326;29;20043;-81
2021/12/17 09:16:38;;;;;;;15.90;9.73;;;8.90;99.90;;;;;;4941486;29;20522;-82
2021/12/17 09:19:07;;;;;;;20.23;10.40;;;8.90;99.90;;;;;;4938990;29;20043;-83
2021/12/17 09:21:32;;;;;;;19.13;9.63;;;9.00;99.90;;;;;;4901951;29;20079;-83
2021/12/17 09:23:59;;;;;;;21.77;11.07;;;9.00;99.90;;;;;;4905833;29;20067;-83
2021/12/17 09:26:25;;;;;;;18.17;10.00;;;9.00;99.90;;;;;;4936284;29;20046;-82
2021/12/17 09:28:51;;;;;;;20.00;11.33;;;9.10;99.90;;;;;;4909236;29;20103;-82
2021/12/17 09:31:18;;;;;;;20.50;10.30;;;9.10;99.90;;;;;;4932300;29;20035;-82
2021/12/17 09:33:46;;;;;;;18.13;10.53;;;9.10;99.90;;;;;;4905542;29;20059;-82
2021/12/17 09:36:12;;;;;;;18.73;9.93;;;9.10;99.90;;;;;;4906279;29;20122;-81
2021/12/17 09:38:38;;;;;;;17.23;9.60;;;9.10;99.90;;;;;;4921730;29;20048;-84
2021/12/17 09:41:05;;;;;;;23.73;11.73;;;9.10;99.90;;;;;;4906037;29;20070;-82
2021/12/17 09:43:32;;;;;;;21.67;10.30;;;9.10;99.90;;;;;;4919670;29;20541;-81
2021/12/17 09:45:59;;;;;;;20.20;9.90;;;9.20;99.90;;;;;;4936270;29;20055;-81
2021/12/17 09:48:25;;;;;;;17.43;9.80;;;9.20;99.90;;;;;;4895505;29;20035;-82
2021/12/17 09:50:55;;;;;;;17.00;9.73;;;9.20;99.90;;;;;;4906021;29;20422;-82
2021/12/17 09:53:21;;;;;;;17.77;8.63;;;9.20;99.90;;;;;;4905821;29;20121;-82
2021/12/17 09:55:46;;;;;;;16.20;9.67;;;9.30;99.90;;;;;;4905484;29;20053;-82
2021/12/17 09:58:12;;;;;;;18.30;9.63;;;9.30;99.90;;;;;;4920884;29;20395;-82
2021/12/17 10:00:38;;;;;;;16.17;9.07;;;9.40;99.90;;;;;;4920415;29;20392;-81
2021/12/17 10:03:08;;;;;;;16.30;8.73;;;9.40;99.90;;;;;;4905268;29;20048;-81
2021/12/17 10:05:36;;;;;;;15.87;8.77;;;9.50;99.90;;;;;;4929315;29;20467;-80
2021/12/17 10:08:05;;;;;;;16.20;9.50;;;9.50;99.90;;;;;;4915978;29;20114;-80
2021/12/17 10:10:37;;;;;;;16.60;10.10;;;9.40;99.90;;;;;;4905918;29;20149;-80
2021/12/17 10:13:15;;;;;;;19.70;10.30;;;9.40;99.90;;;;;;4927560;29;20055;-81
2021/12/17 10:15:44;;;;;;;20.73;9.97;;;9.30;99.90;;;;;;4913580;29;20062;-80
2021/12/17 10:18:10;;;;;;;18.60;10.37;;;9.30;99.90;;;;;;4919313;29;20050;-80
2021/12/17 10:20:56;;;;;;;21.90;11.23;;;9.30;99.90;;;;;;4921201;29;20075;-81
2021/12/17 10:23:24;;;;;;;19.47;10.83;;;9.30;99.90;;;;;;4902480;29;20040;-81
2021/12/17 10:25:49;;;;;;;19.27;11.00;;;9.30;99.90;;;;;;4902246;29;20074;-81
2021/12/17 10:28:16;;;;;;;21.23;11.13;;;9.30;99.90;;;;;;4915126;29;20115;-81
2021/12/17 10:30:44;;;;;;;21.73;10.97;;;9.30;99.90;;;;;;4894929;29;20483;-81
2021/12/17 10:33:17;;;;;;;24.47;11.13;;;9.20;99.90;;;;;;4928794;28;20102;-81
2021/12/17 10:35:46;;;;;;;19.20;10.40;;;9.30;99.90;;;;;;4941879;28;20398;-83
2021/12/17 10:38:15;;;;;;;19.60;10.07;;;9.20;99.90;;;;;;4908392;29;20054;-82
2021/12/17 10:41:17;;;;;;;17.97;9.90;;;9.30;99.90;;;;;;4929968;28;20050;-81
2021/12/17 10:43:40;;;;;;;21.30;9.60;;;9.30;99.90;;;;;;4947049;28;20053;-84
2021/12/17 10:46:22;;;;;;;18.63;10.57;;;9.30;99.90;;;;;;4941082;29;20165;-83
2021/12/17 10:48:54;;;;;;;18.38;10.38;;;9.30;99.90;;;;;;4924991;28;20075;-82
2021/12/17 10:51:42;;;;;;;20.00;11.25;;;9.30;99.90;;;;;;4923615;29;20043;-82
2021/12/17 10:54:12;;;;;;;19.63;11.03;;;9.30;99.90;;;;;;4933243;29;20073;-82
2021/12/17 10:56:49;;;;;;;16.23;9.83;;;9.30;99.90;;;;;;4949608;29;20512;-82
2021/12/17 10:59:22;;;;;;;20.17;10.53;;;9.30;99.90;;;;;;4938866;29;20051;-81
2021/12/17 11:02:02;;;;;;;18.33;11.00;;;9.30;99.90;;;;;;4941609;29;20083;-82
2021/12/17 11:04:35;;;;;;;20.13;11.50;;;9.30;99.90;;;;;;4915767;28;20482;-81
2021/12/17 11:07:03;;;;;;;21.93;12.17;;;9.30;99.90;;;;;;4928556;28;20510;-81
2021/12/17 11:09:47;;;;;;;21.47;10.87;;;9.30;99.90;;;;;;4955726;28;20043;-85
2021/12/17 11:12:35;;;;;;;20.40;11.03;;;9.40;99.90;;;;;;4917206;29;20114;-81
2021/12/17 11:15:18;;;;;;;21.47;10.90;;;9.30;99.90;;;;;;4915239;29;20047;-82
2021/12/17 11:17:47;;;;;;;22.23;11.40;;;9.30;99.90;;;;;;4923183;29;20159;-82
2021/12/17 11:20:19;;;;;;;25.03;11.43;;;9.30;99.90;;;;;;4943265;28;20066;-82
2021/12/17 11:22:47;;;;;;;23.03;11.33;;;9.40;99.90;;;;;;4925449;29;20516;-83
2021/12/17 11:25:14;;;;;;;22.00;11.67;;;9.40;99.90;;;;;;4923221;29;20055;-82
2021/12/17 11:27:40;;;;;;;21.30;11.00;;;9.40;99.90;;;;;;4927769;29;20039;-82
2021/12/17 11:30:12;;;;;;;18.37;9.47;;;9.40;99.90;;;;;;4918369;29;20451;-83
2021/12/17 11:32:38;;;;;;;20.38;10.63;;;9.40;99.90;;;;;;4915801;29;20054;-83
2021/12/17 11:35:05;;;;;;;21.77;10.87;;;9.50;99.90;;;;;;4933705;29;20055;-84
2021/12/17 11:37:32;;;;;;;18.83;10.50;;;9.60;99.90;;;;;;4914098;29;20051;-84
2021/12/17 11:40:03;;;;;;;16.60;10.03;;;9.60;99.90;;;;;;4891132;29;20044;-84
2021/12/17 11:42:53;;;;;;;15.23;8.87;;;9.50;99.90;;;;;;4932034;28;20133;-84
2021/12/17 11:45:23;;;;;;;19.43;9.87;;;9.60;99.90;;;;;;4928190;29;20047;-84
2021/12/17 11:47:50;;;;;;;16.23;8.93;;;9.50;99.90;;;;;;4911211;28;20046;-84
2021/12/17 11:50:17;;;;;;;17.60;9.23;;;9.50;99.90;;;;;;4957396;28;20102;-84
2021/12/17 11:52:56;;;;;;;18.30;9.03;;;9.50;99.90;;;;;;4941889;29;20031;-82
2021/12/17 11:55:34;;;;;;;15.53;8.53;;;9.50;99.90;;;;;;4940639;29;20205;-82
2021/12/17 11:58:09;;;;;;;18.83;9.73;;;9.50;99.90;;;;;;4941075;29;20050;-84
2021/12/17 12:00:41;;;;;;;17.83;8.97;;;9.50;99.90;;;;;;4932140;29;20047;-84
2021/12/17 12:03:19;;;;;;;18.73;10.00;;;9.50;99.90;;;;;;4933520;29;20055;-84
2021/12/17 12:05:51;;;;;;;19.33;9.60;;;9.40;99.90;;;;;;4940598;29;20047;-84
2021/12/17 12:08:51;;;;;;;21.08;10.32;;;9.40;99.90;;;;;;4934910;29;20046;-84
2021/12/17 12:11:25;;;;;;;18.47;9.63;;;9.40;99.90;;;;;;4907406;29;20039;-83
2021/12/17 12:13:54;;;;;;;20.03;10.33;;;9.40;99.90;;;;;;4927812;28;20051;-84
2021/12/17 12:16:28;;;;;;;17.47;9.53;;;9.40;99.90;;;;;;4924910;29;20047;-84
2021/12/17 12:19:08;;;;;;;16.10;9.20;;;9.50;99.90;;;;;;4918359;29;20039;-84
2021/12/17 12:21:36;;;;;;;14.90;7.90;;;9.40;99.90;;;;;;4938813;29;20047;-83
2021/12/17 12:24:13;;;;;;;13.87;6.27;;;9.40;99.90;;;;;;4931218;29;20522;-84
2021/12/17 12:26:48;;;;;;;10.53;7.10;;;9.40;99.90;;;;;;4932542;29;20043;-85
2021/12/17 12:29:24;;;;;;;10.97;6.70;;;9.40;99.90;;;;;;4914430;29;20102;-84
2021/12/17 12:31:58;;;;;;;10.37;5.67;;;9.40;99.90;;;;;;4935377;28;20049;-84
2021/12/17 12:34:36;;;;;;;9.93;6.50;;;9.40;99.90;;;;;;4916594;29;20064;-83
2021/12/17 12:37:10;;;;;;;10.53;6.60;;;9.40;99.90;;;;;;4931029;29;20043;-83
2021/12/17 12:39:42;;;;;;;10.63;5.93;;;9.40;99.90;;;;;;4920668;28;20043;-83
2021/12/17 12:42:17;;;;;;;9.27;4.93;;;9.40;99.90;;;;;;4947357;28;20105;-83
2021/12/17 12:44:42;;;;;;;7.77;4.90;;;9.50;99.90;;;;;;4926563;28;20125;-83
2021/12/17 12:47:31;;;;;;;6.17;4.27;;;9.40;99.90;;;;;;4957722;28;20086;-84
2021/12/17 12:50:12;;;;;;;8.60;4.70;;;9.40;99.90;;;;;;4942393;29;20130;-83
2021/12/17 12:52:45;;;;;;;7.43;4.33;;;9.40;99.90;;;;;;4939536;29;20047;-83
2021/12/17 12:55:23;;;;;;;10.03;5.30;;;9.40;99.90;;;;;;4918409;29;20357;-83
2021/12/17 12:57:53;;;;;;;13.17;5.73;;;9.40;99.90;;;;;;4932430;28;20389;-85
2021/12/17 13:00:25;;;;;;;11.57;6.17;;;9.40;99.90;;;;;;4949915;28;20047;-84
2021/12/17 13:02:55;;;;;;;9.07;5.20;;;9.40;99.90;;;;;;4923468;29;20047;-84
2021/12/17 13:05:21;;;;;;;8.93;5.43;;;9.40;99.90;;;;;;4950708;28;20043;-84
2021/12/17 13:07:51;;;;;;;9.43;5.00;;;9.50;99.90;;;;;;4952919;28;20035;-84
2021/12/17 13:10:45;;;;;;;9.70;5.47;;;9.40;99.90;;;;;;4967491;28;20042;-84
2021/12/17 13:16:09;;;;;;;9.10;4.90;;;9.50;99.90;;;;;;4961106;28;20051;-85
2021/12/17 13:24:13;;;;;;;8.30;4.70;;;9.50;99.90;;;;;;4940962;29;20471;-84
2021/12/17 13:26:46;;;;;;;6.33;4.33;;;9.40;99.90;;;;;;4940660;29;20045;-84
2021/12/17 13:29:14;;;;;;;7.90;4.50;;;9.50;99.90;;;;;;4940652;29;20039;-84
2021/12/17 13:31:55;;;;;;;9.47;5.30;;;9.50;99.90;;;;;;4915919;28;20092;-84
2021/12/17 13:34:26;;;;;;;9.00;4.70;;;9.50;99.90;;;;;;4940699;28;20184;-89
2021/12/17 13:37:16;;;;;;;6.72;3.85;;;9.50;99.90;;;;;;4925053;29;20075;-85
2021/12/17 13:39:58;;;;;;;7.80;4.57;;;9.50;99.90;;;;;;4926015;28;20407;-85
2021/12/17 13:42:34;;;;;;;5.43;3.90;;;9.50;99.90;;;;;;4931227;29;20048;-85
2021/12/17 13:45:07;;;;;;;6.43;4.20;;;9.50;99.90;;;;;;4931481;29;20051;-85
2021/12/17 13:47:36;;;;;;;9.27;4.37;;;9.50;99.90;;;;;;4948579;28;20031;-85
2021/12/17 13:50:12;;;;;;;8.23;4.57;;;9.50;99.90;;;;;;4959460;28;20039;-84
2021/12/17 13:53:10;;;;;;;8.30;4.30;;;9.50;99.90;;;;;;4943805;29;20043;-85
2021/12/17 13:55:43;;;;;;;6.13;3.67;;;9.50;99.90;;;;;;4924329;28;20394;-86
2021/12/17 13:58:20;;;;;;;7.37;4.27;;;9.50;99.90;;;;;;4948468;28;20418;-85
2021/12/17 14:00:52;;;;;;;5.77;3.20;;;9.40;99.90;;;;;;4945165;29;20047;-85
2021/12/17 14:03:21;;;;;;;5.10;3.67;;;9.40;99.90;;;;;;4923949;29;20047;-85
2021/12/17 14:05:57;;;;;;;6.30;3.27;;;9.40;99.90;;;;;;4909022;29;20039;-85
2021/12/17 14:08:23;;;;;;;4.33;2.93;;;9.40;99.90;;;;;;4940047;29;20126;-86
2021/12/17 14:10:54;;;;;;;5.40;3.00;;;9.30;99.90;;;;;;4940020;29;20122;-85
2021/12/17 14:13:22;;;;;;;4.13;2.97;;;9.40;99.90;;;;;;4940224;29;20490;-85
2021/12/17 14:15:49;;;;;;;4.30;2.70;;;9.30;99.90;;;;;;4924027;29;20047;-85
2021/12/17 14:18:19;;;;;;;4.43;3.27;;;9.30;99.90;;;;;;4923419;28;20047;-85
2021/12/17 14:20:56;;;;;;;4.90;3.37;;;9.40;99.90;;;;;;4953514;28;20073;-86
2021/12/17 14:23:26;;;;;;;4.73;3.03;;;9.30;99.90;;;;;;4920975;29;20134;-85
2021/12/17 14:25:53;;;;;;;5.00;3.53;;;9.30;99.90;;;;;;4920914;29;20048;-85
2021/12/17 14:28:25;;;;;;;6.50;3.50;;;9.30;99.90;;;;;;4921145;29;20036;-84
2021/12/17 14:30:59;;;;;;;5.13;3.70;;;9.30;99.90;;;;;;4936416;29;20449;-85
2021/12/17 14:33:40;;;;;;;5.77;3.73;;;9.30;99.90;;;;;;4941191;29;20115;-83
2021/12/17 14:36:15;;;;;;;5.57;3.80;;;9.30;99.90;;;;;;4940871;29;20054;-85
2021/12/17 14:38:47;;;;;;;6.23;4.07;;;9.30;99.90;;;;;;4908070;29;20186;-85
2021/12/17 14:41:31;;;;;;;5.10;3.45;;;9.20;99.90;;;;;;4923780;29;20130;-84
2021/12/17 14:44:02;;;;;;;8.67;4.37;;;9.20;99.90;;;;;;4940104;29;20051;-84
2021/12/17 14:47:02;;;;;;;6.50;4.30;;;9.20;99.90;;;;;;4939382;29;20121;-85
2021/12/17 15:00:51;;;;;;;10.40;5.60;;;9.20;99.90;;;;;;4932566;29;20051;-85
2021/12/17 15:05:56;;;;;;;9.47;5.50;;;9.20;99.90;;;;;;4938431;29;20043;-86
2021/12/17 15:08:23;;;;;;;9.20;5.57;;;9.20;99.90;;;;;;4938830;29;20438;-85
2021/12/17 15:10:48;;;;;;;8.83;6.13;;;9.20;99.90;;;;;;4928866;28;20040;-85
2021/12/17 15:13:15;;;;;;;10.13;6.50;;;9.20;99.90;;;;;;4948220;29;20043;-85
2021/12/17 15:15:41;;;;;;;8.20;5.80;;;9.20;99.90;;;;;;4915155;29;20102;-85
2021/12/17 15:18:14;;;;;;;10.63;5.60;;;9.20;99.90;;;;;;4934383;29;20051;-85
2021/12/17 15:20:43;;;;;;;9.40;5.87;;;9.20;99.90;;;;;;4928460;28;20044;-85
2021/12/17 15:23:09;;;;;;;9.90;6.37;;;9.20;99.90;;;;;;4941753;28;20047;-85
2021/12/17 15:25:36;;;;;;;10.07;6.37;;;9.20;99.90;;;;;;4925559;29;20042;-85
2021/12/17 15:28:04;;;;;;;10.43;6.80;;;9.20;99.90;;;;;;4934938;29;20491;-85
2021/12/17 15:30:34;;;;;;;8.87;6.07;;;9.20;99.90;;;;;;4941424;29;20035;-85
2021/12/17 15:33:00;;;;;;;12.60;6.63;;;9.20;99.90;;;;;;4929290;29;20492;-85
2021/12/17 15:35:27;;;;;;;8.63;5.57;;;9.20;99.90;;;;;;4923737;28;20047;-85
2021/12/17 15:37:55;;;;;;;8.93;6.03;;;9.20;99.90;;;;;;4926824;29;20159;-85
2021/12/17 15:40:21;;;;;;;11.43;6.23;;;9.20;99.90;;;;;;4939146;28;20040;-85
2021/12/17 15:42:48;;;;;;;10.37;6.00;;;9.20;99.90;;;;;;4931956;29;20487;-87
2021/12/17 15:45:15;;;;;;;9.57;6.13;;;9.20;99.90;;;;;;4935867;28;20046;-86
2021/12/17 15:47:42;;;;;;;10.07;5.60;;;9.20;99.90;;;;;;4929977;29;20052;-86
2021/12/17 15:50:10;;;;;;;9.23;5.67;;;9.20;99.90;;;;;;4933564;29;20058;-87
2021/12/17 15:52:46;;;;;;;9.87;5.70;;;9.20;99.90;;;;;;4939215;29;20071;-86
2021/12/17 15:55:14;;;;;;;9.93;5.80;;;9.20;99.90;;;;;;4911623;28;20097;-86
2021/12/17 15:57:40;;;;;;;11.13;6.43;;;9.20;99.90;;;;;;4941218;28;20071;-86
2021/12/17 16:00:06;;;;;;;10.37;6.13;;;9.20;99.90;;;;;;4966872;28;20114;-86
2021/12/17 16:02:32;;;;;;;10.33;6.50;;;9.20;99.90;;;;;;4925965;29;20483;-87
2021/12/17 16:04:58;;;;;;;9.97;6.63;;;9.20;99.90;;;;;;4901895;29;20079;-86
2021/12/17 16:07:24;;;;;;;10.93;6.73;;;9.20;99.90;;;;;;4889822;29;20055;-86
2021/12/17 16:23:20;;;;;;;9.10;6.77;;;9.20;99.90;;;;;;4875124;29;20040;-86
2021/12/17 16:25:46;;;;;;;12.20;7.03;;;9.20;99.90;;;;;;4886555;29;20372;-86
2021/12/17 16:28:12;;;;;;;12.60;7.20;;;9.20;99.90;;;;;;4893741;29;20475;-86
2021/12/17 16:30:38;;;;;;;15.23;7.97;;;9.10;99.90;;;;;;4914973;29;20107;-86
2021/12/17 16:33:07;;;;;;;12.93;7.77;;;9.10;99.90;;;;;;4918927;29;20036;-86
2021/12/17 16:35:33;;;;;;;13.20;7.67;;;9.20;99.90;;;;;;4916761;29;20066;-86
2021/12/17 16:37:59;;;;;;;12.73;7.87;;;9.20;99.90;;;;;;4884599;29;20055;-86
2021/12/17 16:40:27;;;;;;;13.40;8.00;;;9.20;99.90;;;;;;4889909;29;20051;-86
2021/12/17 16:42:54;;;;;;;13.20;8.27;;;9.20;99.90;;;;;;4935496;29;20447;-87
2021/12/17 16:45:30;;;;;;;13.93;8.77;;;9.10;99.90;;;;;;4946026;28;20096;-85
2021/12/17 16:47:58;;;;;;;15.30;9.27;;;9.20;99.90;;;;;;4938729;29;20050;-86
2021/12/17 16:50:26;;;;;;;12.07;7.63;;;9.10;99.90;;;;;;4946004;29;20450;-88
2021/12/17 16:52:53;;;;;;;13.30;8.40;;;9.20;99.90;;;;;;4908712;28;20178;-87
2021/12/17 16:55:20;;;;;;;15.77;9.57;;;9.10;99.90;;;;;;4923152;29;20058;-87
2021/12/17 16:57:47;;;;;;;13.20;7.80;;;9.20;99.90;;;;;;4945406;29;20394;-87
2021/12/17 17:00:13;;;;;;;15.63;9.43;;;9.10;99.90;;;;;;4950961;28;20043;-87
2021/12/17 17:02:39;;;;;;;14.23;8.40;;;9.10;99.90;;;;;;4944228;28;20497;-86
2021/12/17 17:05:15;;;;;;;16.57;9.43;;;9.10;99.90;;;;;;4933062;29;20040;-87
2021/12/17 17:07:44;;;;;;;14.23;9.60;;;9.20;99.90;;;;;;4939114;29;20047;-86
2021/12/17 17:10:11;;;;;;;16.83;10.10;;;9.10;99.90;;;;;;4940039;29;20122;-87
2021/12/17 17:12:39;;;;;;;17.47;10.87;;;9.20;99.90;;;;;;4923229;29;20039;-86
2021/12/17 17:15:06;;;;;;;19.57;11.73;;;9.20;99.90;;;;;;4939096;29;20055;-84
2021/12/17 17:17:34;;;;;;;17.13;10.07;;;9.10;99.90;;;;;;4911438;29;20039;-83
2021/12/17 17:20:09;;;;;;;19.57;11.33;;;9.10;99.90;;;;;;4930418;29;20039;-86
2021/12/17 17:22:35;;;;;;;18.93;10.07;;;9.20;99.90;;;;;;4934303;29;20122;-86
2021/12/17 17:25:02;;;;;;;15.93;9.50;;;9.20;99.90;;;;;;4935507;29;20130;-87
2021/12/17 17:27:28;;;;;;;16.40;10.10;;;9.10;99.90;;;;;;4925584;29;20456;-87
2021/12/17 17:29:53;;;;;;;16.67;10.00;;;9.10;99.90;;;;;;4934233;29;20066;-85